createdAt,value
2018-10-17T00:00:53.273Z,99.40
2018-10-17T00:01:53.221Z,97.50
2018-10-17T00:02:53.197Z,98.20
2018-10-17T00:03:53.167Z,100.50
2018-10-17T00:04:53.181Z,102.80
2018-10-17T00:05:53.118Z,101.90
2018-10-17T00:06:53.106Z,100.20
2018-10-17T00:07:53.064Z,101.20
2018-10-17T00:08:53.036Z,100.20
2018-10-17T00:09:53.013Z,102.80
2018-10-17T00:10:53.000Z,100.90
2018-10-17T00:11:52.957Z,100.50
2018-10-17T00:12:52.974Z,101.80
2018-10-17T00:13:52.903Z,101.70
2018-10-17T00:14:52.877Z,101.00
2018-10-17T00:15:52.851Z,102.40
2018-10-17T00:16:52.871Z,103.70
2018-10-17T00:17:52.803Z,102.90
2018-10-17T00:18:52.801Z,108.10
2018-10-17T00:19:52.747Z,106.30
2018-10-17T00:20:52.719Z,110.80
2018-10-17T00:21:52.692Z,109.40
2018-10-17T00:22:52.681Z,108.70
2018-10-17T00:23:52.639Z,110.20
2018-10-17T00:24:52.623Z,112.90
2018-10-17T00:25:52.589Z,110.50
2018-10-17T00:26:52.561Z,110.40
2018-10-17T00:27:52.536Z,113.70
2018-10-17T00:28:52.510Z,108.80
2018-10-17T00:29:52.487Z,107.10
2018-10-17T00:30:52.522Z,108.00
2018-10-17T00:31:52.431Z,110.20
2018-10-17T00:32:52.406Z,107.00
2018-10-17T00:33:52.377Z,112.90
2018-10-17T00:34:52.393Z,104.70
2018-10-17T00:35:52.322Z,103.30
2018-10-17T00:36:52.309Z,99.90
2018-10-17T00:37:52.276Z,103.50
2018-10-17T00:38:52.252Z,105.70
2018-10-17T00:39:52.217Z,103.40
2018-10-17T00:40:52.229Z,108.60
2018-10-17T00:41:52.172Z,109.30
2018-10-17T00:42:52.155Z,108.80
2018-10-17T00:43:52.112Z,118.90
2018-10-17T00:44:52.083Z,120.00
2018-10-17T00:45:52.059Z,120.40
2018-10-17T00:46:52.036Z,121.70
2018-10-17T00:47:52.006Z,122.40
2018-10-17T00:48:52.021Z,122.30
2018-10-17T00:49:51.954Z,123.70
2018-10-17T00:50:51.926Z,116.70
2018-10-17T00:51:51.900Z,121.10
2018-10-17T00:52:51.916Z,117.50
2018-10-17T00:53:51.848Z,118.60
2018-10-17T00:54:51.824Z,113.30
2018-10-17T00:55:51.795Z,115.60
2018-10-17T00:56:51.788Z,115.10
2018-10-17T00:57:51.745Z,117.00
2018-10-17T00:58:51.757Z,118.10
2018-10-17T00:59:51.690Z,116.00
2018-10-17T01:00:51.676Z,116.90
2018-10-17T01:01:51.638Z,115.50
2018-10-17T01:02:51.860Z,112.50
2018-10-17T01:03:51.583Z,113.30
2018-10-17T01:04:51.586Z,115.70
2018-10-17T01:05:51.533Z,112.80
2018-10-17T01:06:51.528Z,114.80
2018-10-17T01:07:51.477Z,113.60
2018-10-17T01:08:51.455Z,113.70
2018-10-17T01:09:51.425Z,117.60
2018-10-17T01:10:51.447Z,115.00
2018-10-17T01:11:51.377Z,110.10
2018-10-17T01:12:51.348Z,116.90
2018-10-17T01:13:51.319Z,116.70
2018-10-17T01:14:51.293Z,117.30
2018-10-17T01:15:51.265Z,113.50
2018-10-17T01:16:51.293Z,111.70
2018-10-17T01:17:51.215Z,117.20
2018-10-17T01:18:51.203Z,118.50
2018-10-17T01:19:51.164Z,117.70
2018-10-17T01:20:51.134Z,119.20
2018-10-17T01:21:51.107Z,116.90
2018-10-17T01:22:51.090Z,118.20
2018-10-17T01:23:51.056Z,121.00
2018-10-17T01:24:51.035Z,118.00
2018-10-17T01:25:51.002Z,119.70
2018-10-17T01:26:50.974Z,120.70
2018-10-17T01:27:50.947Z,118.50
2018-10-17T01:28:50.970Z,121.40
2018-10-17T01:29:50.899Z,118.80
2018-10-17T01:30:50.870Z,120.90
2018-10-17T01:31:50.842Z,121.30
2018-10-17T01:32:50.867Z,125.90
2018-10-17T01:33:50.789Z,127.70
2018-10-17T01:34:50.766Z,121.50
2018-10-17T01:35:50.737Z,119.80
2018-10-17T01:36:50.730Z,115.30
2018-10-17T01:37:50.690Z,112.10
2018-10-17T01:38:50.661Z,108.70
2018-10-17T01:39:50.631Z,102.20
2018-10-17T01:40:50.651Z,103.60
2018-10-17T01:41:50.576Z,107.70
2018-10-17T01:42:50.551Z,107.60
2018-10-17T01:43:50.548Z,105.20
2018-10-17T01:44:50.497Z,108.30
2018-10-17T01:45:50.472Z,108.10
2018-10-17T01:46:50.445Z,107.60
2018-10-17T01:47:50.416Z,109.40
2018-10-17T01:48:50.392Z,105.50
2018-10-17T01:49:50.365Z,108.20
2018-10-17T01:50:50.336Z,107.80
2018-10-17T01:51:50.313Z,107.20
2018-10-17T01:52:50.283Z,106.60
2018-10-17T01:53:50.257Z,105.50
2018-10-17T01:54:50.229Z,103.30
2018-10-17T01:55:50.203Z,104.50
2018-10-17T01:56:50.176Z,99.10
2018-10-17T01:57:50.150Z,106.20
2018-10-17T01:58:50.129Z,100.50
2018-10-17T01:59:50.098Z,96.90
2018-10-17T02:00:50.073Z,101.80
2018-10-17T02:01:50.045Z,100.40
2018-10-17T02:02:50.035Z,101.20
2018-10-17T02:03:49.989Z,99.90
2018-10-17T02:04:49.965Z,99.10
2018-10-17T02:05:49.936Z,96.50
2018-10-17T02:06:49.910Z,101.20
2018-10-17T02:07:49.883Z,100.30
2018-10-17T02:08:49.856Z,101.40
2018-10-17T02:09:49.831Z,98.50
2018-10-17T02:10:49.802Z,97.30
2018-10-17T02:11:49.776Z,97.00
2018-10-17T02:12:49.749Z,99.20
2018-10-17T02:13:49.722Z,95.80
2018-10-17T02:14:49.695Z,99.30
2018-10-17T02:15:49.672Z,98.60
2018-10-17T02:16:49.649Z,96.60
2018-10-17T02:17:49.617Z,90.80
2018-10-17T02:18:49.590Z,91.00
2018-10-17T02:19:49.562Z,93.90
2018-10-17T02:20:49.535Z,93.30
2018-10-17T02:21:49.511Z,93.40
2018-10-17T02:22:49.481Z,92.30
2018-10-17T02:23:49.458Z,93.70
2018-10-17T02:24:49.435Z,94.70
2018-10-17T02:25:49.404Z,93.30
2018-10-17T02:26:49.374Z,91.70
2018-10-17T02:27:49.347Z,96.60
2018-10-17T02:28:49.322Z,96.30
2018-10-17T02:29:49.297Z,93.30
2018-10-17T02:30:49.273Z,93.20
2018-10-17T02:31:49.241Z,93.50
2018-10-17T02:32:49.221Z,92.50
2018-10-17T02:33:49.186Z,91.90
2018-10-17T02:34:49.160Z,89.80
2018-10-17T02:35:49.140Z,92.70
2018-10-17T02:36:49.106Z,90.50
2018-10-17T02:37:49.135Z,93.40
2018-10-17T02:38:49.055Z,92.80
2018-10-17T02:39:49.163Z,93.10
2018-10-17T02:40:49.003Z,94.70
2018-10-17T02:41:48.972Z,91.00
2018-10-17T02:42:48.944Z,93.10
2018-10-17T02:43:48.922Z,92.20
2018-10-17T02:44:48.891Z,94.00
2018-10-17T02:45:48.873Z,93.80
2018-10-17T02:46:48.839Z,94.70
2018-10-17T02:47:48.810Z,90.00
2018-10-17T02:48:48.787Z,93.30
2018-10-17T02:49:48.960Z,92.90
2018-10-17T02:50:48.932Z,94.50
2018-10-17T02:51:48.905Z,95.60
2018-10-17T02:52:48.677Z,96.30
2018-10-17T02:53:48.648Z,92.70
2018-10-17T02:54:48.825Z,95.50
2018-10-17T02:55:48.798Z,93.50
2018-10-17T02:56:48.568Z,89.90
2018-10-17T02:57:48.542Z,91.90
2018-10-17T02:58:48.514Z,90.80
2018-10-17T02:59:48.486Z,90.10
2018-10-17T03:00:48.466Z,89.80
2018-10-17T03:01:48.435Z,93.10
2018-10-17T03:02:48.407Z,91.40
2018-10-17T03:03:48.583Z,90.10
2018-10-17T03:04:48.352Z,91.20
2018-10-17T03:05:48.338Z,97.10
2018-10-17T03:06:48.300Z,94.30
2018-10-17T03:07:48.324Z,92.30
2018-10-17T03:08:48.246Z,88.80
2018-10-17T03:09:48.220Z,92.80
2018-10-17T03:10:48.190Z,95.70
2018-10-17T03:11:48.167Z,93.20
2018-10-17T03:12:48.137Z,96.50
2018-10-17T03:13:48.115Z,98.50
2018-10-17T03:14:48.285Z,97.90
2018-10-17T03:15:48.059Z,95.40
2018-10-17T03:16:49.045Z,97.90
2018-10-17T03:17:48.008Z,96.00
2018-10-17T03:18:47.975Z,96.10
2018-10-17T03:19:47.949Z,95.20
2018-10-17T03:20:47.921Z,93.90
2018-10-17T03:21:47.894Z,98.00
2018-10-17T03:22:47.871Z,97.20
2018-10-17T03:23:47.841Z,94.50
2018-10-17T03:24:47.816Z,90.90
2018-10-17T03:25:47.789Z,91.40
2018-10-17T03:26:47.760Z,88.90
2018-10-17T03:27:47.815Z,92.30
2018-10-17T03:28:47.705Z,91.60
2018-10-17T03:29:47.679Z,91.20
2018-10-17T03:30:47.652Z,91.60
2018-10-17T03:31:47.623Z,91.50
2018-10-17T03:32:47.599Z,85.30
2018-10-17T03:33:47.571Z,84.90
2018-10-17T03:34:47.543Z,87.00
2018-10-17T03:35:47.545Z,87.30
2018-10-17T03:36:47.489Z,84.10
2018-10-17T03:37:47.463Z,84.70
2018-10-17T03:38:47.442Z,87.00
2018-10-17T03:39:47.409Z,85.20
2018-10-17T03:40:47.384Z,85.80
2018-10-17T03:41:47.361Z,84.00
2018-10-17T03:42:47.334Z,87.10
2018-10-17T03:43:47.303Z,85.90
2018-10-17T03:44:47.275Z,84.30
2018-10-17T03:45:47.252Z,83.80
2018-10-17T03:46:47.220Z,84.90
2018-10-17T03:47:47.192Z,84.60
2018-10-17T03:48:47.169Z,85.00
2018-10-17T03:49:47.177Z,84.10
2018-10-17T03:50:47.113Z,83.60
2018-10-17T03:51:47.084Z,84.70
2018-10-17T03:52:47.058Z,86.50
2018-10-17T03:53:47.031Z,85.10
2018-10-17T03:54:47.005Z,83.10
2018-10-17T03:55:46.983Z,84.20
2018-10-17T03:56:46.949Z,81.40
2018-10-17T03:57:46.924Z,84.70
2018-10-17T03:58:46.895Z,86.40
2018-10-17T03:59:46.948Z,91.50
2018-10-17T04:00:46.845Z,92.20
2018-10-17T04:01:46.819Z,88.20
2018-10-17T04:02:46.867Z,82.40
2018-10-17T04:03:46.767Z,81.90
2018-10-17T04:04:46.734Z,83.00
2018-10-17T04:05:46.707Z,79.80
2018-10-17T04:06:46.680Z,77.20
2018-10-17T04:07:46.653Z,76.20
2018-10-17T04:08:46.628Z,75.60
2018-10-17T04:09:46.602Z,76.20
2018-10-17T04:10:46.573Z,76.70
2018-10-17T04:11:46.548Z,75.00
2018-10-17T04:12:46.519Z,75.50
2018-10-17T04:13:46.494Z,76.10
2018-10-17T04:14:46.466Z,77.90
2018-10-17T04:15:46.441Z,77.40
2018-10-17T04:16:46.411Z,77.50
2018-10-17T04:17:46.388Z,77.10
2018-10-17T04:18:46.355Z,76.00
2018-10-17T04:19:46.333Z,76.00
2018-10-17T04:20:46.311Z,78.00
2018-10-17T04:21:46.285Z,76.10
2018-10-17T04:22:46.447Z,75.00
2018-10-17T04:23:46.222Z,75.60
2018-10-17T04:24:46.204Z,77.50
2018-10-17T04:25:46.167Z,74.80
2018-10-17T04:26:46.139Z,73.30
2018-10-17T04:27:46.113Z,72.80
2018-10-17T04:28:46.087Z,75.10
2018-10-17T04:29:46.060Z,77.50
2018-10-17T04:30:46.032Z,74.30
2018-10-17T04:31:46.005Z,76.70
2018-10-17T04:32:45.981Z,79.30
2018-10-17T04:33:45.954Z,83.00
2018-10-17T04:34:45.942Z,83.40
2018-10-17T04:35:45.902Z,82.80
2018-10-17T04:36:45.869Z,79.50
2018-10-17T04:37:45.844Z,79.00
2018-10-17T04:38:45.819Z,77.00
2018-10-17T04:39:45.790Z,77.20
2018-10-17T04:40:45.764Z,78.00
2018-10-17T04:41:45.738Z,75.00
2018-10-17T04:42:45.712Z,75.30
2018-10-17T04:43:45.692Z,73.90
2018-10-17T04:44:45.656Z,73.40
2018-10-17T04:45:45.637Z,73.10
2018-10-17T04:46:45.600Z,71.90
2018-10-17T04:47:45.634Z,70.90
2018-10-17T04:48:45.748Z,69.10
2018-10-17T04:49:45.721Z,70.20
2018-10-17T04:50:45.695Z,72.10
2018-10-17T04:51:45.465Z,67.70
2018-10-17T04:52:45.443Z,68.40
2018-10-17T04:53:45.615Z,69.40
2018-10-17T04:54:45.588Z,69.60
2018-10-17T04:55:45.561Z,67.40
2018-10-17T04:56:45.330Z,67.20
2018-10-17T04:57:45.303Z,68.10
2018-10-17T04:58:45.477Z,68.00
2018-10-17T04:59:45.250Z,74.50
2018-10-17T05:00:45.222Z,74.30
2018-10-17T05:01:45.195Z,74.00
2018-10-17T05:02:45.165Z,72.10
2018-10-17T05:03:45.140Z,74.80
2018-10-17T05:04:45.174Z,73.90
2018-10-17T05:05:45.090Z,74.90
2018-10-17T05:06:45.107Z,74.20
2018-10-17T05:07:45.033Z,75.60
2018-10-17T05:08:45.012Z,73.80
2018-10-17T05:09:44.978Z,74.30
2018-10-17T05:10:44.954Z,75.60
2018-10-17T05:11:44.923Z,73.70
2018-10-17T05:12:44.898Z,79.10
2018-10-17T05:13:44.871Z,79.20
2018-10-17T05:14:44.847Z,76.00
2018-10-17T05:15:44.817Z,77.90
2018-10-17T05:16:44.800Z,78.80
2018-10-17T05:17:44.768Z,75.70
2018-10-17T05:18:44.735Z,75.10
2018-10-17T05:19:44.708Z,77.70
2018-10-17T05:20:44.678Z,75.60
2018-10-17T05:21:44.660Z,75.00
2018-10-17T05:22:44.625Z,75.40
2018-10-17T05:23:44.601Z,71.70
2018-10-17T05:24:44.574Z,69.60
2018-10-17T05:25:44.547Z,70.90
2018-10-17T05:26:44.526Z,68.80
2018-10-17T05:27:44.495Z,65.60
2018-10-17T05:28:44.463Z,64.90
2018-10-17T05:29:44.644Z,66.20
2018-10-17T05:30:44.410Z,67.10
2018-10-17T05:31:44.382Z,66.80
2018-10-17T05:32:44.358Z,66.90
2018-10-17T05:33:44.329Z,68.70
2018-10-17T05:34:44.300Z,67.40
2018-10-17T05:35:44.278Z,68.70
2018-10-17T05:36:44.252Z,69.60
2018-10-17T05:37:44.345Z,68.70
2018-10-17T05:38:44.195Z,69.80
2018-10-17T05:39:44.168Z,69.70
2018-10-17T05:40:44.139Z,63.30
2018-10-17T05:41:44.112Z,67.80
2018-10-17T05:42:44.085Z,69.00
2018-10-17T05:43:44.060Z,65.70
2018-10-17T05:44:44.036Z,65.30
2018-10-17T05:45:44.012Z,66.70
2018-10-17T05:46:43.980Z,64.20
2018-10-17T05:47:43.951Z,62.10
2018-10-17T05:48:43.926Z,61.10
2018-10-17T05:49:43.897Z,63.90
2018-10-17T05:50:43.875Z,57.40
2018-10-17T05:51:43.843Z,58.40
2018-10-17T05:52:43.818Z,65.80
2018-10-17T05:53:43.792Z,62.10
2018-10-17T05:54:43.764Z,62.80
2018-10-17T05:55:43.740Z,58.90
2018-10-17T05:56:43.713Z,57.40
2018-10-17T05:57:43.681Z,53.10
2018-10-17T05:58:43.656Z,57.70
2018-10-17T05:59:43.633Z,58.00
2018-10-17T06:00:43.603Z,56.50
2018-10-17T06:01:43.744Z,52.80
2018-10-17T06:02:43.548Z,51.00
2018-10-17T06:03:43.523Z,48.90
2018-10-17T06:04:43.697Z,51.90
2018-10-17T06:05:43.674Z,61.00
2018-10-17T06:06:43.692Z,61.40
2018-10-17T06:07:43.417Z,61.20
2018-10-17T06:08:43.387Z,62.40
2018-10-17T06:09:43.364Z,59.70
2018-10-17T06:10:43.336Z,64.50
2018-10-17T06:11:43.305Z,67.00
2018-10-17T06:12:43.281Z,68.70
2018-10-17T06:13:43.254Z,67.00
2018-10-17T06:14:43.229Z,63.20
2018-10-17T06:15:43.209Z,65.00
2018-10-17T06:16:43.378Z,64.90
2018-10-17T06:17:43.347Z,61.20
2018-10-17T06:18:43.168Z,59.60
2018-10-17T06:19:43.295Z,57.40
2018-10-17T06:20:43.273Z,56.60
2018-10-17T06:21:43.044Z,56.50
2018-10-17T06:22:43.215Z,54.30
2018-10-17T06:23:43.188Z,54.60
2018-10-17T06:24:43.164Z,53.80
2018-10-17T06:25:43.138Z,52.00
2018-10-17T06:26:43.108Z,51.60
2018-10-17T06:27:42.881Z,50.40
2018-10-17T06:28:42.853Z,49.30
2018-10-17T06:29:42.826Z,45.60
2018-10-17T06:30:42.843Z,46.20
2018-10-17T06:31:42.777Z,45.10
2018-10-17T06:32:42.749Z,44.50
2018-10-17T06:33:42.932Z,44.30
2018-10-17T06:34:42.733Z,44.60
2018-10-17T06:35:42.671Z,44.20
2018-10-17T06:36:42.643Z,45.60
2018-10-17T06:37:42.621Z,45.60
2018-10-17T06:39:24.945Z,42.80
2018-10-17T06:40:24.918Z,42.90
2018-10-17T06:41:24.689Z,41.90
2018-10-17T06:42:25.170Z,42.80
2018-10-17T06:43:24.688Z,42.90
2018-10-17T06:44:24.620Z,41.90
2018-10-17T06:45:24.590Z,43.00
2018-10-17T06:46:24.560Z,42.60
2018-10-17T06:47:24.536Z,39.90
2018-10-17T06:48:24.712Z,39.00
2018-10-17T06:49:24.514Z,37.20
2018-10-17T06:50:24.464Z,37.10
2018-10-17T06:52:06.792Z,34.20
2018-10-17T06:53:06.831Z,33.90
2018-10-17T06:54:06.944Z,33.10
2018-10-17T06:55:06.587Z,32.50
2018-10-17T06:56:48.838Z,30.00
2018-10-17T06:57:48.843Z,29.70
2018-10-17T06:58:48.589Z,29.70
2018-10-17T06:59:48.565Z,27.70
2018-10-17T07:00:48.539Z,28.80
2018-10-17T07:01:48.601Z,26.70
2018-10-17T07:02:48.490Z,28.40
2018-10-17T07:03:48.465Z,27.50
2018-10-17T07:04:48.642Z,26.80
2018-10-17T07:05:48.619Z,26.00
2018-10-17T07:06:48.393Z,25.90
2018-10-17T07:07:48.372Z,25.70
2018-10-17T07:08:48.547Z,25.60
2018-10-17T07:09:48.319Z,24.60
2018-10-17T07:10:52.355Z,25.80
2018-10-17T07:28:40.451Z,37.70
2018-10-17T07:29:39.987Z,35.70
2018-10-17T07:30:39.838Z,33.90
2018-10-17T07:31:39.816Z,33.40
2018-10-17T07:32:39.810Z,31.50
2018-10-17T07:33:39.766Z,30.70
2018-10-17T07:34:39.746Z,30.90
2018-10-17T07:35:39.780Z,28.10
2018-10-17T07:36:39.691Z,29.00
2018-10-17T07:37:39.665Z,29.80
2018-10-17T07:38:39.641Z,28.60
2018-10-17T07:39:39.620Z,28.40
2018-10-17T07:40:39.595Z,29.00
2018-10-17T07:41:39.578Z,28.50
2018-10-17T07:42:39.548Z,29.20
2018-10-17T07:43:39.523Z,27.90
2018-10-17T07:44:39.503Z,28.10
2018-10-17T08:24:18.063Z,28.70
2018-10-17T08:25:17.948Z,29.00
2018-10-17T08:26:17.928Z,30.70
2018-10-17T08:27:17.967Z,29.60
2018-10-17T08:28:17.676Z,30.10
2018-10-17T08:29:17.853Z,30.10
2018-10-17T08:30:17.750Z,29.00
2018-10-17T08:31:17.603Z,29.60
2018-10-17T08:32:17.580Z,29.60
2018-10-17T08:33:17.769Z,29.50
2018-10-17T08:34:17.734Z,29.00
2018-10-17T08:35:17.775Z,29.10
2018-10-17T08:36:17.740Z,28.30
2018-10-17T08:37:17.934Z,30.00
2018-10-17T08:38:59.794Z,31.00
2018-10-17T08:39:59.571Z,30.20
2018-10-17T08:40:59.558Z,30.40
2018-10-17T08:41:59.575Z,30.50
2018-10-17T08:42:59.506Z,31.00
2018-10-17T08:43:59.519Z,31.50
2018-10-17T08:44:59.461Z,31.80
2018-10-17T08:45:59.438Z,31.60
2018-10-17T08:46:59.414Z,31.50
2018-10-17T08:47:59.385Z,31.90
2018-10-17T08:48:59.365Z,31.50
2018-10-17T08:49:59.417Z,33.00
2018-10-17T08:51:00.351Z,32.60
2018-10-17T08:51:59.505Z,32.00
2018-10-17T08:52:59.273Z,32.00
2018-10-17T08:53:59.250Z,31.60
2018-10-17T08:54:59.228Z,32.70
2018-10-17T08:55:59.239Z,33.20
2018-10-17T08:56:59.181Z,33.80
2018-10-17T08:57:59.259Z,33.10
2018-10-17T08:58:59.135Z,34.20
2018-10-17T08:59:59.109Z,34.70
2018-10-17T09:00:59.091Z,34.20
2018-10-17T09:01:59.142Z,34.40
2018-10-17T09:02:59.046Z,32.60
2018-10-17T09:03:59.029Z,32.90
2018-10-17T09:04:59.301Z,32.60
2018-10-17T09:05:59.053Z,34.40
2018-10-17T09:06:58.952Z,32.70
2018-10-17T09:07:58.985Z,34.40
2018-10-17T09:08:58.906Z,33.30
2018-10-17T09:09:58.883Z,34.80
2018-10-17T09:10:59.113Z,33.90
2018-10-17T09:11:58.841Z,33.00
2018-10-17T09:12:58.816Z,32.50
2018-10-17T09:13:58.828Z,33.00
2018-10-17T09:14:58.977Z,32.90
2018-10-17T09:15:58.807Z,32.30
2018-10-17T09:16:58.730Z,31.80
2018-10-17T09:17:58.771Z,32.70
2018-10-17T09:18:58.887Z,30.90
2018-10-17T09:19:58.933Z,33.20
2018-10-17T09:20:59.149Z,31.60
2018-10-17T09:21:59.022Z,32.90
2018-10-17T09:22:58.801Z,33.00
2018-10-17T09:23:58.806Z,32.70
2018-10-17T09:24:58.781Z,33.00
2018-10-17T09:27:23.043Z,31.40
2018-10-17T09:28:23.023Z,31.40
2018-10-17T09:29:23.006Z,32.00
2018-10-17T09:30:23.151Z,30.80
2018-10-17T09:31:22.961Z,31.10
2018-10-17T09:32:22.953Z,31.80
2018-10-17T09:33:22.921Z,30.80
2018-10-17T09:34:22.904Z,33.50
2018-10-17T09:35:22.881Z,32.20
2018-10-17T09:36:22.870Z,34.10
2018-10-17T09:37:22.846Z,32.40
2018-10-17T09:38:22.826Z,30.00
2018-10-17T09:39:22.800Z,30.90
2018-10-17T09:40:22.575Z,35.00
2018-10-17T09:41:22.557Z,39.30
2018-10-17T09:42:22.739Z,39.90
2018-10-17T09:43:22.623Z,37.10
2018-10-17T09:44:22.500Z,36.80
2018-10-17T09:45:22.680Z,35.20
2018-10-17T09:46:22.869Z,34.80
2018-10-17T09:48:04.857Z,36.30
2018-10-17T09:49:04.584Z,34.30
2018-10-17T09:52:57.011Z,31.60
2018-10-17T09:53:53.170Z,31.90
2018-10-17T09:54:53.338Z,31.50
2018-10-17T09:55:53.321Z,32.00
2018-10-17T09:56:53.100Z,30.70
2018-10-17T09:57:53.133Z,29.20
2018-10-17T09:58:53.061Z,31.20
2018-10-17T09:59:53.050Z,30.50
2018-10-17T10:00:53.025Z,28.70
2018-10-17T10:01:53.004Z,28.80
2018-10-17T10:02:52.993Z,28.30
2018-10-17T10:03:52.991Z,28.60
2018-10-17T10:04:52.951Z,28.90
2018-10-17T10:05:52.974Z,29.10
2018-10-17T10:06:52.914Z,28.90
2018-10-17T10:07:52.894Z,29.60
2018-10-17T10:08:53.083Z,30.20
2018-10-17T10:09:52.871Z,28.60
2018-10-17T10:10:52.853Z,30.30
2018-10-17T10:11:53.034Z,29.00
2018-10-17T10:12:52.803Z,28.20
2018-10-17T10:13:52.985Z,27.90
2018-10-17T10:14:52.767Z,27.50
2018-10-17T10:15:52.782Z,27.80
2018-10-17T10:16:52.782Z,27.90
2018-10-17T10:17:52.716Z,26.90
2018-10-17T10:18:52.697Z,26.80
2018-10-17T10:19:52.687Z,27.00
2018-10-17T10:20:52.661Z,26.30
2018-10-17T10:21:52.649Z,27.00
2018-10-17T10:23:35.027Z,26.80
2018-10-17T10:24:34.837Z,27.10
2018-10-17T10:25:34.748Z,24.70
2018-10-17T10:26:34.733Z,25.10
2018-10-17T10:27:34.716Z,23.80
2018-10-17T10:28:34.756Z,24.40
2018-10-17T10:29:34.710Z,23.30
2018-10-17T10:36:54.277Z,23.90
2018-10-17T10:37:54.057Z,23.30
2018-10-17T10:38:54.242Z,24.50
2018-10-17T10:39:54.090Z,25.30
2018-10-17T10:40:54.008Z,22.80
2018-10-17T10:41:54.019Z,22.40
2018-10-17T10:42:53.974Z,23.40
2018-10-17T10:43:53.958Z,22.20
2018-10-17T10:44:53.989Z,22.90
2018-10-17T10:45:53.923Z,22.80
2018-10-17T10:46:53.905Z,23.20
2018-10-17T10:47:53.900Z,21.50
2018-10-17T10:48:53.879Z,20.40
2018-10-17T10:49:53.889Z,21.60
2018-10-17T10:50:53.906Z,21.70
2018-10-17T10:51:53.825Z,21.50
2018-10-17T10:52:53.835Z,22.50
2018-10-17T10:53:53.868Z,22.40
2018-10-17T10:54:53.777Z,22.60
2018-10-17T10:55:53.825Z,23.00
2018-10-17T10:56:53.965Z,22.80
2018-10-17T10:57:53.743Z,23.60
2018-10-17T10:58:53.791Z,25.00
2018-10-17T10:59:53.764Z,26.10
2018-10-17T11:00:53.685Z,25.50
2018-10-17T11:01:53.667Z,25.00
2018-10-17T11:02:53.666Z,27.10
2018-10-17T11:03:53.629Z,25.70
2018-10-17T11:04:53.660Z,26.20
2018-10-17T11:05:53.595Z,28.40
2018-10-17T11:06:53.580Z,28.10
2018-10-17T11:07:53.583Z,25.70
2018-10-17T11:08:53.551Z,28.00
2018-10-17T11:09:53.535Z,28.90
2018-10-17T11:10:53.541Z,27.20
2018-10-17T11:11:53.504Z,29.50
2018-10-17T11:12:53.491Z,28.80
2018-10-17T11:13:53.491Z,27.50
2018-10-17T11:14:53.744Z,26.40
2018-10-17T11:15:53.439Z,26.20
2018-10-17T11:16:53.459Z,27.80
2018-10-17T11:17:53.400Z,27.10
2018-10-17T11:18:53.382Z,25.80
2018-10-17T11:19:53.375Z,26.10
2018-10-17T11:20:53.405Z,24.80
2018-10-17T11:21:53.439Z,28.70
2018-10-17T11:22:53.325Z,33.50
2018-10-17T11:23:53.327Z,31.70
2018-10-17T11:24:53.292Z,31.00
2018-10-17T11:25:53.270Z,28.30
2018-10-17T11:26:53.265Z,25.20
2018-10-17T11:27:53.236Z,25.70
2018-10-17T11:28:53.238Z,25.20
2018-10-17T11:29:53.200Z,22.80
2018-10-17T11:30:53.185Z,18.60
2018-10-17T11:31:53.206Z,18.30
2018-10-17T11:32:53.209Z,14.80
2018-10-17T11:33:53.136Z,15.40
2018-10-17T11:34:53.138Z,18.20
2018-10-17T11:35:53.110Z,18.80
2018-10-17T11:36:53.085Z,17.00
2018-10-17T11:37:53.088Z,16.30
2018-10-17T11:38:53.062Z,19.20
2018-10-17T11:39:53.093Z,18.80
2018-10-17T11:40:53.093Z,17.70
2018-10-17T11:41:53.003Z,17.40
2018-10-17T11:42:52.995Z,17.10
2018-10-17T11:43:52.976Z,15.60
2018-10-17T11:44:52.960Z,16.60
2018-10-17T11:45:52.943Z,17.80
2018-10-17T11:46:52.972Z,17.40
2018-10-17T11:47:53.141Z,17.80
2018-10-17T11:55:12.512Z,12.50
2018-10-17T11:56:12.698Z,14.60
2018-10-17T11:59:19.025Z,12.60
2018-10-17T12:00:18.733Z,12.30
2018-10-17T12:01:18.717Z,11.20
2018-10-17T12:06:31.926Z,11.80
2018-10-17T12:07:31.632Z,11.70
2018-10-17T12:11:20.509Z,11.20
2018-10-17T12:12:20.263Z,10.70
2018-10-17T12:13:20.420Z,10.00
2018-10-17T12:14:20.228Z,9.70
2018-10-17T12:15:20.490Z,9.80
2018-10-17T12:38:49.442Z,10.50
2018-10-17T12:39:49.286Z,10.50
2018-10-17T12:40:49.285Z,10.00
2018-10-17T12:41:49.160Z,9.60
2018-10-17T12:42:49.144Z,9.70
2018-10-17T12:43:49.124Z,10.80
2018-10-17T12:44:49.393Z,9.20
2018-10-17T12:45:49.281Z,9.20
2018-10-17T12:46:49.075Z,8.80
2018-10-17T12:47:49.059Z,8.90
2018-10-17T12:48:49.042Z,8.90
2018-10-17T12:49:49.088Z,9.00
2018-10-17T12:50:49.064Z,8.70
2018-10-17T12:51:49.209Z,9.10
2018-10-17T12:52:49.139Z,8.90
2018-10-17T12:53:48.969Z,9.90
2018-10-17T12:54:48.968Z,8.20
2018-10-17T12:55:48.935Z,8.40
2018-10-17T12:56:48.922Z,8.00
2018-10-17T12:57:48.910Z,8.50
2018-10-17T12:58:48.887Z,8.00
2018-10-17T12:59:48.870Z,9.00
2018-10-17T13:00:48.869Z,8.40
2018-10-17T13:01:48.846Z,8.00
2018-10-17T13:02:48.827Z,8.70
2018-10-17T13:03:49.013Z,8.30
2018-10-17T13:04:48.796Z,7.90
2018-10-17T13:08:55.440Z,8.50
2018-10-17T13:09:55.225Z,8.70
2018-10-17T13:10:55.276Z,9.30
2018-10-17T13:11:55.195Z,9.60
2018-10-17T13:12:55.210Z,9.00
2018-10-17T13:13:55.167Z,10.80
2018-10-17T13:14:55.159Z,9.00
2018-10-17T13:15:55.135Z,10.00
2018-10-17T13:16:55.157Z,9.90
2018-10-17T13:17:55.124Z,10.30
2018-10-17T13:18:55.131Z,10.40
2018-10-17T13:19:57.903Z,9.70
2018-10-17T13:23:43.891Z,9.70
2018-10-17T13:34:34.071Z,10.70
2018-10-17T13:35:33.862Z,11.30
2018-10-17T13:36:33.834Z,11.60
2018-10-17T13:37:34.022Z,10.60
2018-10-17T13:41:22.625Z,11.40
2018-10-17T13:42:22.407Z,10.70
2018-10-17T13:44:07.368Z,11.60
2018-10-17T13:45:05.740Z,11.60
2018-10-17T13:46:04.507Z,11.40
2018-10-17T13:47:04.571Z,12.40
2018-10-17T13:48:04.473Z,12.50
2018-10-17T13:49:04.570Z,11.90
2018-10-17T13:50:04.455Z,12.00
2018-10-17T13:51:04.418Z,11.80
2018-10-17T13:52:04.398Z,11.90
2018-10-17T13:53:04.492Z,13.90
2018-10-17T13:54:04.361Z,13.00
2018-10-17T13:55:04.378Z,12.40
2018-10-17T13:56:04.327Z,12.10
2018-10-17T13:57:04.308Z,10.60
2018-10-17T13:58:04.325Z,11.50
2018-10-17T13:59:04.331Z,11.90
2018-10-17T14:00:04.259Z,13.10
2018-10-17T14:01:04.329Z,11.70
2018-10-17T14:02:04.221Z,13.60
2018-10-17T14:03:04.202Z,13.60
2018-10-17T14:04:04.270Z,12.60
2018-10-17T14:05:04.166Z,13.60
2018-10-17T14:06:04.222Z,13.50
2018-10-17T14:07:04.205Z,13.30
2018-10-17T14:08:04.115Z,12.70
2018-10-17T14:09:04.109Z,12.60
2018-10-17T14:10:04.079Z,11.60
2018-10-17T14:11:04.065Z,11.20
2018-10-17T14:12:04.062Z,11.70
2018-10-17T14:13:04.026Z,11.50
2018-10-17T14:14:04.008Z,11.40
2018-10-17T14:15:04.024Z,12.20
2018-10-17T14:16:03.977Z,12.60
2018-10-17T14:17:03.962Z,12.00
2018-10-17T14:18:03.979Z,11.60
2018-10-17T14:19:03.923Z,11.80
2018-10-17T14:20:03.905Z,12.50
2018-10-17T14:21:03.913Z,11.90
2018-10-17T14:22:03.869Z,12.80
2018-10-17T14:23:03.850Z,11.80
2018-10-17T14:24:03.893Z,11.80
2018-10-17T14:25:03.817Z,13.10
2018-10-17T14:26:03.796Z,12.30
2018-10-17T14:27:03.875Z,12.00
2018-10-17T14:28:03.767Z,12.60
2018-10-17T14:29:03.745Z,12.10
2018-10-17T14:30:03.789Z,11.70
2018-10-17T14:31:03.709Z,11.90
2018-10-17T14:32:03.693Z,11.40
2018-10-17T14:33:03.690Z,11.30
2018-10-17T14:34:03.654Z,10.90
2018-10-17T14:35:03.643Z,11.40
2018-10-17T14:36:03.742Z,11.30
2018-10-17T14:37:03.604Z,10.70
2018-10-17T14:38:03.764Z,10.60
2018-10-17T14:39:03.650Z,11.10
2018-10-17T14:40:03.549Z,11.30
2018-10-17T14:41:03.759Z,11.80
2018-10-17T14:42:03.568Z,11.40
2018-10-17T14:43:03.491Z,11.50
2018-10-17T14:44:03.480Z,11.80
2018-10-17T14:45:03.529Z,12.90
2018-10-17T14:48:10.185Z,11.70
2018-10-17T14:49:10.085Z,11.20
2018-10-17T14:50:09.865Z,12.00
2018-10-17T14:51:09.926Z,12.60
2018-10-17T14:52:10.030Z,11.40
2018-10-17T14:53:52.164Z,10.80
2018-10-17T14:54:52.146Z,11.40
2018-10-17T14:55:51.950Z,12.50
2018-10-17T14:56:51.923Z,12.60
2018-10-17T14:57:52.089Z,11.80
2018-10-17T14:58:51.873Z,12.20
2018-10-17T14:59:51.845Z,12.50